createdAt,value
2023-06-30T00:01:37.419Z,17.75
2023-06-30T00:04:04.433Z,17.86
2023-06-30T00:06:31.101Z,17.89
2023-06-30T00:08:57.936Z,17.94
2023-06-30T00:11:24.701Z,17.74
2023-06-30T00:13:52.789Z,17.57
2023-06-30T00:16:20.603Z,17.49
2023-06-30T00:18:47.250Z,17.61
2023-06-30T00:21:14.333Z,17.73
2023-06-30T00:23:41.175Z,17.74
2023-06-30T00:26:07.816Z,17.77
2023-06-30T00:28:34.494Z,17.74
2023-06-30T00:31:01.225Z,17.74
2023-06-30T00:33:27.897Z,17.73
2023-06-30T00:35:54.522Z,17.76
2023-06-30T00:38:21.323Z,17.70
2023-06-30T00:40:48.034Z,17.64
2023-06-30T00:43:14.900Z,17.60
2023-06-30T00:45:41.607Z,17.60
2023-06-30T00:48:08.228Z,17.50
2023-06-30T00:50:35.265Z,17.52
2023-06-30T00:53:02.360Z,17.53
2023-06-30T00:55:29.794Z,17.39
2023-06-30T00:57:56.428Z,17.34
2023-06-30T01:00:23.293Z,17.29
2023-06-30T01:03:04.293Z,17.18
2023-06-30T01:05:50.217Z,16.98
2023-06-30T01:08:46.479Z,16.71
2023-06-30T01:11:13.420Z,16.88
2023-06-30T01:13:42.963Z,16.89
2023-06-30T01:16:10.646Z,16.78
2023-06-30T01:18:37.809Z,16.75
2023-06-30T01:21:06.319Z,16.97
2023-06-30T01:23:36.616Z,16.94
2023-06-30T01:26:04.420Z,16.97
2023-06-30T01:28:32.083Z,16.98
2023-06-30T01:31:00.591Z,16.93
2023-06-30T01:33:28.119Z,16.94
2023-06-30T01:35:55.418Z,16.92
2023-06-30T01:38:22.068Z,16.78
2023-06-30T01:40:49.516Z,16.78
2023-06-30T01:43:16.985Z,16.81
2023-06-30T01:45:44.078Z,16.65
2023-06-30T01:48:11.132Z,16.70
2023-06-30T01:50:39.716Z,16.77
2023-06-30T01:53:06.594Z,16.72
2023-06-30T01:55:33.506Z,16.78
2023-06-30T01:58:00.189Z,16.75
2023-06-30T02:00:26.839Z,16.70
2023-06-30T02:02:53.757Z,16.62
2023-06-30T02:05:20.491Z,16.61
2023-06-30T02:07:47.157Z,16.55
2023-06-30T02:10:13.875Z,16.36
2023-06-30T02:12:40.552Z,16.39
2023-06-30T02:15:07.622Z,16.24
2023-06-30T02:17:34.443Z,16.33
2023-06-30T02:20:02.182Z,16.37
2023-06-30T02:22:28.791Z,16.24
2023-06-30T02:24:55.432Z,16.10
2023-06-30T02:27:22.053Z,16.03
2023-06-30T02:29:48.705Z,16.03
2023-06-30T02:32:15.366Z,16.18
2023-06-30T02:34:42.156Z,15.97
2023-06-30T02:37:08.807Z,16.11
2023-06-30T02:39:35.480Z,16.17
2023-06-30T02:42:02.270Z,16.42
2023-06-30T02:44:28.977Z,16.29
2023-06-30T02:46:55.755Z,16.31
2023-06-30T02:49:23.720Z,16.04
2023-06-30T02:51:50.400Z,15.87
2023-06-30T02:54:17.108Z,15.92
2023-06-30T02:56:43.765Z,15.97
2023-06-30T02:59:10.378Z,16.01
2023-06-30T03:01:37.237Z,16.18
2023-06-30T03:04:04.279Z,16.23
2023-06-30T03:06:31.317Z,16.30
2023-06-30T03:08:57.950Z,15.82
2023-06-30T03:11:25.669Z,15.82
2023-06-30T03:13:52.389Z,15.89
2023-06-30T03:16:19.531Z,15.96
2023-06-30T03:18:46.260Z,15.96
2023-06-30T03:21:12.899Z,15.92
2023-06-30T03:23:39.545Z,15.97
2023-06-30T03:26:06.284Z,15.93
2023-06-30T03:28:32.924Z,15.89
2023-06-30T03:30:59.672Z,15.69
2023-06-30T03:33:26.406Z,15.45
2023-06-30T03:35:53.049Z,15.56
2023-06-30T03:38:19.718Z,15.42
2023-06-30T03:40:46.369Z,15.46
2023-06-30T03:43:13.060Z,15.47
2023-06-30T03:45:39.706Z,15.33
2023-06-30T03:48:06.602Z,15.41
2023-06-30T03:50:33.405Z,15.38
2023-06-30T03:53:00.061Z,15.52
2023-06-30T03:55:26.841Z,15.32
2023-06-30T03:57:53.510Z,15.27
2023-06-30T04:00:20.583Z,15.48
2023-06-30T04:02:47.309Z,15.61
2023-06-30T04:05:13.992Z,15.50
2023-06-30T04:07:40.700Z,15.45
2023-06-30T04:10:07.894Z,15.28
2023-06-30T04:12:34.611Z,15.38
2023-06-30T04:15:01.251Z,15.36
2023-06-30T04:17:27.940Z,15.30
2023-06-30T04:19:54.598Z,15.34
2023-06-30T04:22:22.259Z,15.12
2023-06-30T04:24:49.023Z,15.16
2023-06-30T04:27:15.724Z,15.41
2023-06-30T04:29:42.452Z,15.56
2023-06-30T04:32:09.291Z,15.45
2023-06-30T04:34:36.227Z,15.34
2023-06-30T04:37:02.944Z,15.51
2023-06-30T04:39:29.598Z,15.53
2023-06-30T04:41:56.243Z,15.40
2023-06-30T04:44:22.927Z,15.26
2023-06-30T04:46:49.547Z,15.31
2023-06-30T04:49:16.383Z,15.46
2023-06-30T04:51:43.043Z,15.37
2023-06-30T04:54:09.683Z,15.36
2023-06-30T04:56:36.296Z,15.38
2023-06-30T04:59:02.923Z,15.59
2023-06-30T05:01:29.602Z,16.26
2023-06-30T05:03:56.335Z,16.34
2023-06-30T05:06:23.054Z,16.39
2023-06-30T05:08:49.763Z,16.59
2023-06-30T05:11:16.443Z,17.21
2023-06-30T05:13:43.094Z,17.57
2023-06-30T05:16:12.495Z,17.12
2023-06-30T05:18:39.315Z,17.12
2023-06-30T05:21:07.857Z,16.95
2023-06-30T05:23:34.576Z,17.60
2023-06-30T05:26:01.224Z,17.51
2023-06-30T05:28:27.870Z,17.57
2023-06-30T05:30:54.507Z,17.79
2023-06-30T05:33:21.174Z,17.96
2023-06-30T05:35:47.977Z,17.56
2023-06-30T05:38:14.582Z,17.79
2023-06-30T05:40:41.214Z,18.03
2023-06-30T05:43:07.839Z,17.79
2023-06-30T05:45:34.640Z,17.56
2023-06-30T05:48:01.429Z,18.28
2023-06-30T05:50:28.086Z,18.15
2023-06-30T05:52:54.837Z,18.39
2023-06-30T05:55:21.573Z,18.33
2023-06-30T05:57:48.508Z,18.25
2023-06-30T06:00:15.663Z,18.07
2023-06-30T06:02:42.402Z,18.10
2023-06-30T06:05:09.550Z,18.61
2023-06-30T06:07:36.511Z,18.47
2023-06-30T06:10:03.278Z,18.41
2023-06-30T06:12:29.907Z,18.38
2023-06-30T06:14:56.675Z,18.93
2023-06-30T06:17:23.411Z,19.62
2023-06-30T06:19:50.112Z,19.32
2023-06-30T06:22:16.899Z,19.11
2023-06-30T06:24:43.557Z,19.29
2023-06-30T06:27:10.313Z,19.65
2023-06-30T06:29:37.119Z,19.59
2023-06-30T06:32:04.001Z,19.42
2023-06-30T06:34:30.638Z,19.41
2023-06-30T06:36:57.302Z,19.66
2023-06-30T06:39:24.009Z,20.38
2023-06-30T06:41:50.704Z,20.22
2023-06-30T06:44:17.592Z,20.28
2023-06-30T06:46:44.451Z,20.44
2023-06-30T06:49:11.638Z,20.47
2023-06-30T06:51:38.284Z,20.65
2023-06-30T06:54:04.937Z,21.03
2023-06-30T06:56:31.821Z,20.96
2023-06-30T06:58:58.454Z,21.12
2023-06-30T07:01:25.140Z,20.78
2023-06-30T07:03:51.833Z,20.73
2023-06-30T07:06:18.580Z,20.79
2023-06-30T07:08:45.820Z,21.15
2023-06-30T07:11:12.467Z,21.13
2023-06-30T07:13:39.117Z,21.74
2023-06-30T07:16:06.163Z,21.46
2023-06-30T07:18:34.764Z,21.80
2023-06-30T07:21:01.496Z,21.57
2023-06-30T07:23:28.158Z,21.30
2023-06-30T07:25:54.815Z,21.46
2023-06-30T07:28:21.522Z,21.67
2023-06-30T07:30:48.231Z,22.21
2023-06-30T07:33:14.929Z,22.56
2023-06-30T07:35:41.780Z,22.46
2023-06-30T07:38:08.461Z,22.50
2023-06-30T07:40:46.501Z,22.59
2023-06-30T07:43:21.358Z,22.86
2023-06-30T07:45:48.316Z,22.73
2023-06-30T07:48:15.333Z,22.73
2023-06-30T07:50:50.759Z,22.71
2023-06-30T07:53:22.004Z,23.27
2023-06-30T07:55:48.656Z,23.36
2023-06-30T07:58:15.344Z,23.10
2023-06-30T08:00:41.981Z,23.17
2023-06-30T08:03:08.851Z,23.47
2023-06-30T08:05:35.706Z,23.62
2023-06-30T08:08:02.446Z,23.64
2023-06-30T08:10:29.143Z,23.48
2023-06-30T08:12:55.868Z,23.48
2023-06-30T08:15:22.509Z,23.98
2023-06-30T08:17:55.732Z,23.67
2023-06-30T08:20:26.806Z,23.70
2023-06-30T08:22:54.259Z,23.77
2023-06-30T08:25:25.390Z,23.60
2023-06-30T08:27:52.740Z,24.14
2023-06-30T08:30:22.778Z,24.38
2023-06-30T08:32:50.835Z,24.18
2023-06-30T08:35:17.846Z,24.13
2023-06-30T08:37:44.573Z,24.36
2023-06-30T08:40:11.890Z,23.97
2023-06-30T08:42:41.913Z,24.22
2023-06-30T08:45:10.261Z,24.45
2023-06-30T08:47:38.656Z,24.37
2023-06-30T08:50:07.628Z,24.46
2023-06-30T08:52:35.573Z,24.25
2023-06-30T08:55:03.454Z,24.62
2023-06-30T08:57:30.986Z,24.85
2023-06-30T08:59:57.638Z,24.77
2023-06-30T09:02:24.472Z,24.98
2023-06-30T09:04:51.628Z,25.17
2023-06-30T09:07:27.050Z,25.12
2023-06-30T09:10:04.273Z,25.00
2023-06-30T09:12:30.984Z,25.14
2023-06-30T09:15:00.672Z,25.06
2023-06-30T09:17:27.616Z,24.86
2023-06-30T09:19:54.327Z,24.92
2023-06-30T09:22:52.340Z,25.14
2023-06-30T09:25:29.102Z,25.20
2023-06-30T09:27:56.501Z,25.36
2023-06-30T09:30:33.354Z,25.36
2023-06-30T09:33:00.422Z,25.68
2023-06-30T09:35:27.216Z,25.48
2023-06-30T09:37:54.721Z,25.44
2023-06-30T09:40:26.144Z,25.84
2023-06-30T09:42:53.950Z,26.15
2023-06-30T09:45:21.212Z,26.05
2023-06-30T09:47:54.778Z,25.83
2023-06-30T09:50:28.593Z,26.02
2023-06-30T09:52:55.373Z,25.80
2023-06-30T09:55:22.047Z,25.93
2023-06-30T09:57:48.702Z,25.75
2023-06-30T10:00:29.807Z,25.83
2023-06-30T10:03:07.108Z,25.90
2023-06-30T10:05:34.041Z,25.90
2023-06-30T10:08:01.868Z,25.57
2023-06-30T10:10:29.549Z,25.71
2023-06-30T10:13:00.254Z,25.87
2023-06-30T10:15:27.651Z,26.02
2023-06-30T10:17:55.281Z,26.00
2023-06-30T10:20:27.849Z,26.12
2023-06-30T10:23:02.339Z,26.20
2023-06-30T10:25:31.199Z,26.22
2023-06-30T10:27:58.600Z,26.00
2023-06-30T10:30:26.034Z,26.15
2023-06-30T10:32:53.159Z,26.00
2023-06-30T10:35:22.027Z,26.19
2023-06-30T10:37:49.228Z,26.43
2023-06-30T10:40:36.258Z,26.40
2023-06-30T10:43:07.028Z,26.38
2023-06-30T10:46:08.896Z,26.26
2023-06-30T10:48:37.211Z,26.37
2023-06-30T10:51:05.517Z,26.65
2023-06-30T10:53:32.284Z,27.12
2023-06-30T10:55:59.038Z,27.08
2023-06-30T10:58:27.064Z,27.02
2023-06-30T11:01:04.608Z,27.16
2023-06-30T11:03:56.405Z,27.03
2023-06-30T11:06:23.855Z,26.99
2023-06-30T11:09:03.907Z,27.31
2023-06-30T11:11:31.217Z,27.37
2023-06-30T11:14:07.788Z,27.22
2023-06-30T11:17:04.814Z,26.89
2023-06-30T11:19:31.641Z,26.54
2023-06-30T11:22:23.914Z,26.68
2023-06-30T11:24:50.669Z,27.06
2023-06-30T11:27:18.154Z,27.15
2023-06-30T11:29:47.780Z,27.23
2023-06-30T11:32:18.184Z,27.21
2023-06-30T11:34:45.630Z,27.32
2023-06-30T11:37:12.289Z,27.27
2023-06-30T11:39:38.925Z,27.75
2023-06-30T11:42:05.893Z,27.85
2023-06-30T11:44:36.954Z,27.84
2023-06-30T11:47:04.020Z,27.90
2023-06-30T11:49:35.861Z,27.90
2023-06-30T11:52:02.556Z,27.89
2023-06-30T11:54:37.023Z,28.11
2023-06-30T11:57:04.995Z,27.58
2023-06-30T11:59:32.377Z,27.81
2023-06-30T12:01:59.708Z,27.76
2023-06-30T12:04:36.953Z,27.64
2023-06-30T12:07:05.073Z,27.53
2023-06-30T12:09:35.441Z,27.48
2023-06-30T12:12:02.195Z,27.53
2023-06-30T12:14:28.882Z,27.83
2023-06-30T12:16:55.651Z,27.88
2023-06-30T12:19:28.618Z,27.70
2023-06-30T12:22:00.299Z,27.78
2023-06-30T12:24:31.918Z,27.96
2023-06-30T12:26:58.718Z,28.09
2023-06-30T12:29:25.430Z,27.87
2023-06-30T12:31:52.226Z,28.30
2023-06-30T12:34:36.447Z,28.24
2023-06-30T12:37:03.814Z,28.32
2023-06-30T12:39:30.655Z,28.12
2023-06-30T12:41:57.515Z,28.26
2023-06-30T12:44:24.374Z,28.40
2023-06-30T12:47:03.698Z,28.36
2023-06-30T12:49:30.356Z,28.10
2023-06-30T12:51:57.365Z,28.05
2023-06-30T12:54:24.158Z,27.78
2023-06-30T12:56:51.170Z,27.66
2023-06-30T12:59:18.429Z,27.94
2023-06-30T13:01:46.256Z,28.22
2023-06-30T13:04:13.110Z,28.12
2023-06-30T13:06:41.247Z,27.96
2023-06-30T13:09:08.336Z,28.12
2023-06-30T13:11:35.041Z,28.45
2023-06-30T13:14:02.720Z,28.54
2023-06-30T13:16:29.566Z,28.67
2023-06-30T13:18:56.550Z,28.58
2023-06-30T13:21:23.244Z,28.67
2023-06-30T13:23:49.912Z,28.52
2023-06-30T13:26:16.977Z,28.50
2023-06-30T13:28:43.808Z,28.45
2023-06-30T13:31:10.518Z,28.28
2023-06-30T13:33:37.232Z,28.31
2023-06-30T13:36:04.861Z,28.33
2023-06-30T13:38:31.698Z,28.53
2023-06-30T13:40:58.338Z,28.68
2023-06-30T13:43:25.014Z,28.87
2023-06-30T13:45:51.688Z,28.83
2023-06-30T13:48:18.356Z,29.06
2023-06-30T13:50:44.999Z,29.35
2023-06-30T13:53:11.711Z,29.29
2023-06-30T13:55:38.397Z,28.91
2023-06-30T13:58:05.111Z,29.08
2023-06-30T14:00:31.746Z,29.11
2023-06-30T14:02:58.648Z,28.61
2023-06-30T14:05:25.450Z,28.60
2023-06-30T14:07:52.346Z,28.71
2023-06-30T14:10:18.974Z,28.72
2023-06-30T14:12:46.396Z,29.01
2023-06-30T14:15:13.123Z,29.14
2023-06-30T14:17:39.770Z,29.27
2023-06-30T14:20:07.077Z,29.03
2023-06-30T14:22:33.715Z,28.90
2023-06-30T14:25:00.396Z,29.06
2023-06-30T14:27:27.179Z,28.60
2023-06-30T14:29:53.901Z,28.88
2023-06-30T14:32:23.744Z,28.78
2023-06-30T14:34:50.748Z,28.97
2023-06-30T14:37:17.428Z,29.02
2023-06-30T14:39:44.052Z,28.82
2023-06-30T14:42:22.968Z,28.97
2023-06-30T14:44:57.704Z,29.16
2023-06-30T14:47:24.431Z,29.34
2023-06-30T14:49:51.070Z,29.27
2023-06-30T14:52:17.718Z,29.20
2023-06-30T14:54:44.360Z,29.03
2023-06-30T14:57:11.047Z,28.82
2023-06-30T14:59:37.653Z,28.95
2023-06-30T15:02:04.592Z,29.17
2023-06-30T15:04:31.361Z,28.95
2023-06-30T15:06:58.020Z,28.77
2023-06-30T15:09:24.723Z,28.68
2023-06-30T15:11:51.378Z,28.73
2023-06-30T15:14:18.149Z,28.75
2023-06-30T15:16:44.910Z,28.84
2023-06-30T15:19:11.567Z,29.12
2023-06-30T15:21:38.282Z,28.68
2023-06-30T15:24:05.014Z,28.66
2023-06-30T15:26:31.705Z,28.60
2023-06-30T15:28:58.520Z,28.23
2023-06-30T15:31:25.164Z,29.05
2023-06-30T15:33:51.901Z,29.11
2023-06-30T15:36:18.641Z,29.09
2023-06-30T15:38:45.301Z,28.93
2023-06-30T15:41:22.748Z,28.78
2023-06-30T15:43:50.563Z,29.13
2023-06-30T15:46:18.323Z,29.26
2023-06-30T15:48:44.986Z,29.06
2023-06-30T15:51:12.746Z,28.82
2023-06-30T15:53:39.605Z,28.69
2023-06-30T15:56:06.328Z,28.50
2023-06-30T15:58:33.120Z,28.57
2023-06-30T16:00:59.786Z,28.55
2023-06-30T16:03:26.592Z,28.58
2023-06-30T16:05:53.517Z,28.58
2023-06-30T16:08:20.228Z,28.70
2023-06-30T16:10:46.977Z,28.78
2023-06-30T16:13:14.252Z,28.88
2023-06-30T16:15:41.449Z,28.93
2023-06-30T16:18:08.296Z,28.59
2023-06-30T16:20:35.021Z,28.84
2023-06-30T16:23:01.680Z,29.21
2023-06-30T16:25:28.353Z,29.39
2023-06-30T16:27:54.997Z,28.84
2023-06-30T16:30:30.304Z,28.53
2023-06-30T16:32:58.610Z,28.17
2023-06-30T16:35:26.158Z,28.01
2023-06-30T16:37:56.865Z,28.11
2023-06-30T16:40:24.252Z,28.35
2023-06-30T16:42:50.992Z,28.40
2023-06-30T16:45:17.860Z,28.32
2023-06-30T16:47:46.168Z,28.25
2023-06-30T16:50:15.146Z,28.37
2023-06-30T16:52:41.773Z,28.33
2023-06-30T16:55:10.058Z,28.37
2023-06-30T16:57:40.011Z,28.28
2023-06-30T17:00:10.450Z,28.45
2023-06-30T17:02:40.413Z,28.44
2023-06-30T17:05:07.885Z,28.14
2023-06-30T17:07:34.639Z,28.16
2023-06-30T17:10:01.299Z,28.36
2023-06-30T17:12:27.935Z,28.07
2023-06-30T17:14:54.679Z,28.00
2023-06-30T17:17:23.822Z,28.16
2023-06-30T17:19:52.332Z,27.68
2023-06-30T17:22:18.991Z,27.66
2023-06-30T17:24:45.668Z,27.55
2023-06-30T17:27:12.540Z,27.32
2023-06-30T17:29:39.269Z,27.26
2023-06-30T17:32:06.746Z,27.36
2023-06-30T17:34:33.519Z,27.53
2023-06-30T17:37:08.000Z,27.31
2023-06-30T17:39:35.234Z,27.78
2023-06-30T17:42:02.089Z,27.51
2023-06-30T17:44:29.555Z,27.37
2023-06-30T17:46:57.480Z,27.78
2023-06-30T17:49:27.642Z,27.65
2023-06-30T17:51:55.075Z,27.06
2023-06-30T17:54:22.275Z,26.79
2023-06-30T17:56:49.364Z,26.77
2023-06-30T17:59:16.341Z,26.49
2023-06-30T18:01:44.354Z,26.23
2023-06-30T18:04:12.025Z,26.37
2023-06-30T18:07:00.413Z,26.28
2023-06-30T18:09:28.849Z,26.07
2023-06-30T18:11:55.558Z,26.13
2023-06-30T18:14:22.499Z,26.00
2023-06-30T18:16:49.218Z,25.86
2023-06-30T18:19:18.589Z,25.77
2023-06-30T18:21:47.911Z,25.71
2023-06-30T18:24:15.377Z,25.59
2023-06-30T18:26:42.601Z,25.63
2023-06-30T18:29:09.249Z,25.50
2023-06-30T18:31:35.940Z,25.45
2023-06-30T18:34:02.688Z,25.41
2023-06-30T18:36:29.652Z,25.22
2023-06-30T18:38:56.314Z,25.19
2023-06-30T18:41:23.372Z,25.15
2023-06-30T18:43:50.708Z,25.11
2023-06-30T18:46:23.334Z,25.06
2023-06-30T18:48:50.017Z,24.97
2023-06-30T18:51:16.710Z,24.81
2023-06-30T18:53:43.428Z,24.56
2023-06-30T18:56:10.101Z,24.48
2023-06-30T18:58:36.856Z,24.36
2023-06-30T19:01:03.545Z,24.18
2023-06-30T19:03:30.321Z,24.17
2023-06-30T19:05:58.103Z,24.08
2023-06-30T19:08:24.946Z,24.10
2023-06-30T19:10:51.661Z,24.06
2023-06-30T19:13:18.265Z,24.00
2023-06-30T19:15:45.100Z,23.96
2023-06-30T19:18:12.420Z,23.99
2023-06-30T19:20:39.291Z,24.00
2023-06-30T19:23:05.978Z,23.92
2023-06-30T19:25:33.088Z,23.88
2023-06-30T19:27:59.766Z,23.81
2023-06-30T19:30:26.438Z,23.85
2023-06-30T19:32:53.106Z,23.74
2023-06-30T19:35:20.018Z,23.72
2023-06-30T19:37:47.061Z,23.69
2023-06-30T19:40:13.716Z,23.60
2023-06-30T19:42:40.348Z,23.59
2023-06-30T19:45:07.378Z,23.39
2023-06-30T19:47:34.077Z,23.39
2023-06-30T19:50:01.627Z,23.31
2023-06-30T19:52:28.325Z,23.32
2023-06-30T19:54:54.922Z,23.07
2023-06-30T19:57:21.535Z,22.87
2023-06-30T19:59:50.347Z,22.64
2023-06-30T20:02:17.060Z,22.50
2023-06-30T20:04:43.836Z,22.54
2023-06-30T20:07:10.549Z,22.57
2023-06-30T20:09:37.247Z,22.68
2023-06-30T20:12:04.166Z,22.68
2023-06-30T20:14:31.937Z,22.73
2023-06-30T20:16:58.653Z,22.78
2023-06-30T20:19:25.315Z,22.49
2023-06-30T20:21:51.987Z,22.39
2023-06-30T20:24:18.678Z,22.37
2023-06-30T20:26:45.369Z,22.28
2023-06-30T20:29:13.116Z,22.07
2023-06-30T20:31:39.835Z,22.02
2023-06-30T20:34:06.513Z,22.01
2023-06-30T20:36:33.182Z,22.18
2023-06-30T20:38:59.812Z,22.03
2023-06-30T20:41:26.451Z,22.06
2023-06-30T20:43:53.136Z,22.06
2023-06-30T20:46:19.855Z,22.06
2023-06-30T20:48:46.528Z,22.02
2023-06-30T20:51:13.250Z,22.04
2023-06-30T20:53:39.896Z,21.90
2023-06-30T20:56:06.536Z,21.92
2023-06-30T20:58:33.357Z,21.90
2023-06-30T21:01:00.084Z,21.87
2023-06-30T21:03:26.743Z,21.93
2023-06-30T21:05:53.502Z,22.05
2023-06-30T21:08:20.147Z,22.02
2023-06-30T21:10:47.103Z,22.07
2023-06-30T21:13:14.014Z,22.05
2023-06-30T21:15:40.633Z,22.02
2023-06-30T21:18:07.494Z,21.97
2023-06-30T21:20:34.189Z,21.94
2023-06-30T21:23:00.870Z,21.89
2023-06-30T21:25:27.611Z,21.85
2023-06-30T21:27:54.234Z,21.88
2023-06-30T21:30:20.870Z,21.85
2023-06-30T21:32:47.579Z,21.80
2023-06-30T21:35:14.211Z,21.74
2023-06-30T21:37:40.964Z,21.67
2023-06-30T21:40:08.173Z,21.63
2023-06-30T21:42:34.870Z,21.57
2023-06-30T21:45:01.623Z,21.57
2023-06-30T21:47:28.273Z,21.64
2023-06-30T21:49:54.936Z,21.68
2023-06-30T21:52:21.689Z,21.69
2023-06-30T21:54:49.090Z,21.47
2023-06-30T21:57:16.399Z,21.29
2023-06-30T21:59:43.045Z,21.30
2023-06-30T22:02:09.798Z,21.19
2023-06-30T22:04:36.592Z,21.09
2023-06-30T22:07:15.655Z,21.23
2023-06-30T22:09:42.299Z,21.10
2023-06-30T22:12:09.887Z,21.14
2023-06-30T22:14:36.524Z,21.10
2023-06-30T22:17:03.348Z,21.01
2023-06-30T22:19:31.025Z,21.02
2023-06-30T22:21:57.733Z,21.04
2023-06-30T22:24:25.274Z,21.04
2023-06-30T22:26:51.987Z,21.05
2023-06-30T22:29:18.612Z,21.00
2023-06-30T22:31:45.649Z,20.99
2023-06-30T22:34:12.793Z,20.88
2023-06-30T22:36:39.463Z,20.85
2023-06-30T22:39:06.123Z,20.75
2023-06-30T22:41:32.877Z,20.74
2023-06-30T22:43:59.490Z,20.71
2023-06-30T22:46:26.438Z,20.75
2023-06-30T22:48:53.118Z,20.70
2023-06-30T22:51:19.757Z,20.63
2023-06-30T22:53:46.409Z,20.52
2023-06-30T22:56:13.047Z,20.44
2023-06-30T22:58:39.725Z,20.42
2023-06-30T23:01:06.504Z,20.44
2023-06-30T23:03:33.318Z,20.40
2023-06-30T23:06:00.019Z,20.43
2023-06-30T23:08:26.693Z,19.89
2023-06-30T23:10:53.324Z,19.89
2023-06-30T23:13:19.968Z,19.89
2023-06-30T23:15:46.567Z,19.87
2023-06-30T23:18:13.438Z,19.81
2023-06-30T23:20:40.240Z,19.94
2023-06-30T23:23:06.871Z,19.94
2023-06-30T23:25:33.569Z,19.95
2023-06-30T23:28:00.320Z,19.95
2023-06-30T23:30:27.250Z,19.90
2023-06-30T23:32:54.090Z,19.94
2023-06-30T23:35:20.750Z,19.87
2023-06-30T23:37:47.417Z,19.73
2023-06-30T23:40:14.100Z,19.71
2023-06-30T23:42:40.767Z,19.77
2023-06-30T23:45:07.994Z,19.48
2023-06-30T23:47:34.716Z,19.47
2023-06-30T23:50:01.596Z,19.55
2023-06-30T23:52:28.236Z,19.52
2023-06-30T23:54:54.850Z,19.57
2023-06-30T23:57:21.578Z,19.66
2023-06-30T23:59:48.184Z,19.71
